RYR27JN LIPQ-EGSS
Flight info
| Callsign | RYR27JN |
|---|---|
| Flight time | 1h 49m |
| Altitude | 18000 |
| Route | RIFEN Y526 ELPEZ P125 URAVA/N0442F360 DCT VEKEN DCT UMVEG/N0441F380 DCT KPT L608 TEDGO DCT SUNEG L608 ULNOK DCT ADENU L608 LIRSU DCT SOGRI/N0434F350 DCT NIK/N0430F340 DCT KOZUF DCT IMPOH/N0375F260 DCT SASKI L608 SUMUM Y6 TOSVA |
| Aircraft | B38M/M-SADE3FGIJ1LRWYZ/SB1 |
Departure
| Time | 2026-04-23 17:54 |
|---|---|
| Airport | Trieste Airport (LIPQ) |
Arrival
| Time | 2026-04-23 19:44 |
|---|---|
| Airport | London Stansted Airport (EGSS) |
| Time | Latitude | Longitude | Altitude | Speed | Heading |
|---|---|---|---|---|---|
| 2026-04-23 17:34 | 45.82238 | 13.48617 | 50 ft | 0 kts | 148° |
| 2026-04-23 17:49 | 45.82237 | 13.48617 | 50 ft | 0 kts | 155° |
| 2026-04-23 17:49 | 45.82232 | 13.48613 | 50 ft | 1 kts | 212° |
| 2026-04-23 17:50 | 45.82235 | 13.48601 | 50 ft | 2 kts | 319° |
| 2026-04-23 17:50 | 45.82334 | 13.48569 | 50 ft | 8 kts | 3° |
| 2026-04-23 17:50 | 45.82399 | 13.48572 | 50 ft | 10 kts | 0° |
| 2026-04-23 17:51 | 45.82480 | 13.48573 | 48 ft | 13 kts | 0° |
| 2026-04-23 17:51 | 45.82571 | 13.48574 | 49 ft | 14 kts | 0° |
| 2026-04-23 17:51 | 45.82700 | 13.48576 | 49 ft | 8 kts | 0° |
| 2026-04-23 17:52 | 45.82730 | 13.48576 | 49 ft | 0 kts | 0° |
| 2026-04-23 17:52 | 45.82765 | 13.48572 | 49 ft | 4 kts | 332° |
| 2026-04-23 17:52 | 45.82777 | 13.48522 | 48 ft | 5 kts | 270° |
| 2026-04-23 17:53 | 45.82777 | 13.48519 | 48 ft | 0 kts | 270° |
| 2026-04-23 17:53 | 45.82777 | 13.48514 | 48 ft | 9 kts | 270° |
| 2026-04-23 17:54 | 45.82778 | 13.48010 | 47 ft | 90 kts | 271° |
| 2026-04-23 17:54 | 45.82785 | 13.46775 | 49 ft | 155 kts | 270° |
| 2026-04-23 17:54 | 45.82846 | 13.43391 | 1436 ft | 167 kts | 271° |
| 2026-04-23 17:55 | 45.82945 | 13.39934 | 2635 ft | 196 kts | 272° |
| 2026-04-23 17:55 | 45.82973 | 13.37900 | 3278 ft | 209 kts | 270° |
| 2026-04-23 17:55 | 45.82948 | 13.35773 | 4128 ft | 216 kts | 270° |
| 2026-04-23 17:56 | 45.82954 | 13.33561 | 4773 ft | 232 kts | 271° |
| 2026-04-23 17:56 | 45.83266 | 13.28631 | 5832 ft | 268 kts | 300° |
| 2026-04-23 17:56 | 45.84568 | 13.26786 | 6798 ft | 260 kts | 336° |
| 2026-04-23 17:57 | 45.86314 | 13.26133 | 7654 ft | 262 kts | 358° |
| 2026-04-23 17:57 | 45.88071 | 13.26505 | 8587 ft | 260 kts | 24° |
| 2026-04-23 17:57 | 45.90840 | 13.29855 | 10430 ft | 264 kts | 35° |
| 2026-04-23 17:58 | 45.92356 | 13.31498 | 10897 ft | 283 kts | 36° |
| 2026-04-23 17:58 | 45.93947 | 13.33287 | 11385 ft | 297 kts | 37° |
| 2026-04-23 17:58 | 45.95574 | 13.35174 | 12115 ft | 302 kts | 38° |
| 2026-04-23 17:58 | 45.97200 | 13.37099 | 12949 ft | 305 kts | 38° |
| 2026-04-23 17:59 | 45.98843 | 13.39069 | 13751 ft | 309 kts | 39° |
| 2026-04-23 17:59 | 46.00600 | 13.40858 | 14470 ft | 312 kts | 24° |
| 2026-04-23 17:59 | 46.02695 | 13.41702 | 15172 ft | 317 kts | 13° |
| 2026-04-23 17:59 | 46.04875 | 13.42364 | 15815 ft | 323 kts | 13° |
| 2026-04-23 18:00 | 46.07080 | 13.43021 | 16504 ft | 327 kts | 13° |
| 2026-04-23 18:00 | 46.09323 | 13.43676 | 17159 ft | 331 kts | 12° |
| 2026-04-23 18:00 | 46.11597 | 13.44333 | 17816 ft | 336 kts | 12° |
| 2026-04-23 18:00 | 46.13903 | 13.44997 | 18443 ft | 340 kts | 12° |
| 2026-04-23 18:01 | 46.16243 | 13.45670 | 18968 ft | 344 kts | 12° |
| 2026-04-23 18:01 | 46.18599 | 13.46347 | 19551 ft | 347 kts | 12° |
| 2026-04-23 18:01 | 46.20979 | 13.47032 | 20114 ft | 350 kts | 12° |
| 2026-04-23 18:01 | 46.23376 | 13.47748 | 20652 ft | 354 kts | 12° |
| 2026-04-23 18:02 | 46.24974 | 13.48227 | 21045 ft | 355 kts | 12° |
| 2026-04-23 18:02 | 46.28232 | 13.49203 | 21731 ft | 359 kts | 12° |
| 2026-04-23 18:02 | 46.30682 | 13.49936 | 22298 ft | 362 kts | 12° |
| 2026-04-23 18:02 | 46.33156 | 13.50679 | 22824 ft | 365 kts | 12° |
| 2026-04-23 18:03 | 46.35658 | 13.51430 | 23357 ft | 368 kts | 12° |
| 2026-04-23 18:03 | 46.38178 | 13.52175 | 23850 ft | 371 kts | 10° |
| 2026-04-23 18:03 | 46.40760 | 13.52229 | 24349 ft | 375 kts | 352° |
| 2026-04-23 18:03 | 46.43254 | 13.51066 | 24816 ft | 383 kts | 335° |
| 2026-04-23 18:04 | 46.45521 | 13.48984 | 25299 ft | 388 kts | 329° |
| 2026-04-23 18:04 | 46.47758 | 13.46768 | 25702 ft | 392 kts | 329° |
| 2026-04-23 18:04 | 46.50006 | 13.44495 | 26154 ft | 395 kts | 329° |
| 2026-04-23 18:04 | 46.52259 | 13.42188 | 26558 ft | 398 kts | 329° |
| 2026-04-23 18:05 | 46.54524 | 13.39849 | 26958 ft | 401 kts | 328° |
| 2026-04-23 18:05 | 46.56604 | 13.37087 | 27366 ft | 413 kts | 312° |
| 2026-04-23 18:05 | 46.58229 | 13.33602 | 27816 ft | 418 kts | 308° |
| 2026-04-23 18:05 | 46.59856 | 13.30068 | 28135 ft | 424 kts | 308° |
| 2026-04-23 18:06 | 46.61484 | 13.26480 | 28559 ft | 426 kts | 309° |
| 2026-04-23 18:06 | 46.63133 | 13.22881 | 28874 ft | 430 kts | 311° |
| 2026-04-23 18:06 | 46.64792 | 13.19221 | 29154 ft | 436 kts | 308° |
| 2026-04-23 18:06 | 46.66407 | 13.15486 | 29538 ft | 437 kts | 309° |
| 2026-04-23 18:07 | 46.68068 | 13.11743 | 29758 ft | 442 kts | 309° |
| 2026-04-23 18:07 | 46.69739 | 13.07979 | 30108 ft | 444 kts | 310° |
| 2026-04-23 18:07 | 46.71418 | 13.04194 | 30449 ft | 445 kts | 310° |
| 2026-04-23 18:07 | 46.73097 | 13.00402 | 30828 ft | 446 kts | 309° |
| 2026-04-23 18:08 | 46.74214 | 12.97878 | 31043 ft | 448 kts | 309° |
| 2026-04-23 18:08 | 46.76481 | 12.92750 | 31438 ft | 452 kts | 309° |
| 2026-04-23 18:08 | 46.78188 | 12.88880 | 31732 ft | 454 kts | 309° |
| 2026-04-23 18:08 | 46.79896 | 12.85004 | 32030 ft | 456 kts | 309° |
| 2026-04-23 18:09 | 46.81616 | 12.81096 | 32318 ft | 458 kts | 309° |
| 2026-04-23 18:09 | 46.83336 | 12.77181 | 32618 ft | 461 kts | 309° |
| 2026-04-23 18:09 | 46.85071 | 12.73227 | 32891 ft | 463 kts | 309° |
| 2026-04-23 18:09 | 46.86806 | 12.69266 | 33277 ft | 464 kts | 308° |
| 2026-04-23 18:10 | 46.88548 | 12.65288 | 33575 ft | 467 kts | 309° |
| 2026-04-23 18:10 | 46.90301 | 12.61274 | 33921 ft | 468 kts | 309° |
| 2026-04-23 18:10 | 46.92051 | 12.57261 | 34300 ft | 468 kts | 309° |
| 2026-04-23 18:10 | 46.93800 | 12.53245 | 34616 ft | 468 kts | 309° |
| 2026-04-23 18:11 | 46.95543 | 12.49237 | 35006 ft | 466 kts | 308° |
| 2026-04-23 18:11 | 46.97275 | 12.45249 | 35385 ft | 464 kts | 308° |
| 2026-04-23 18:11 | 46.98981 | 12.41315 | 35769 ft | 462 kts | 308° |
| 2026-04-23 18:11 | 47.00699 | 12.37348 | 36140 ft | 460 kts | 308° |
| 2026-04-23 18:12 | 47.02410 | 12.33394 | 36492 ft | 459 kts | 308° |
| 2026-04-23 18:12 | 47.04112 | 12.29451 | 36815 ft | 457 kts | 308° |
| 2026-04-23 18:12 | 47.05804 | 12.25528 | 37145 ft | 455 kts | 308° |
| 2026-04-23 18:12 | 47.07492 | 12.21609 | 37464 ft | 453 kts | 307° |
| 2026-04-23 18:13 | 47.09166 | 12.17713 | 37780 ft | 451 kts | 307° |
| 2026-04-23 18:13 | 47.10832 | 12.13835 | 38044 ft | 450 kts | 307° |
| 2026-04-23 18:13 | 47.12500 | 12.09944 | 38229 ft | 450 kts | 307° |
| 2026-04-23 18:14 | 47.15285 | 12.03439 | 38224 ft | 447 kts | 307° |
| 2026-04-23 18:14 | 47.19133 | 11.94431 | 38216 ft | 449 kts | 307° |
| 2026-04-23 18:15 | 47.22226 | 11.86420 | 38234 ft | 453 kts | 301° |
| 2026-04-23 18:15 | 47.25102 | 11.78190 | 38223 ft | 453 kts | 302° |
| 2026-04-23 18:16 | 47.28006 | 11.69981 | 38208 ft | 452 kts | 302° |
| 2026-04-23 18:16 | 47.30909 | 11.61773 | 38217 ft | 453 kts | 302° |
| 2026-04-23 18:17 | 47.35282 | 11.49371 | 38202 ft | 456 kts | 302° |
| 2026-04-23 18:17 | 47.38187 | 11.41064 | 38215 ft | 455 kts | 302° |
| 2026-04-23 18:18 | 47.41083 | 11.32776 | 38215 ft | 454 kts | 302° |
| 2026-04-23 18:18 | 47.43976 | 11.24474 | 38225 ft | 456 kts | 302° |
| 2026-04-23 18:19 | 47.46874 | 11.16133 | 38236 ft | 457 kts | 302° |
| 2026-04-23 18:19 | 47.49768 | 11.07774 | 38247 ft | 457 kts | 301° |
| 2026-04-23 18:20 | 47.52173 | 11.00807 | 38261 ft | 457 kts | 301° |
| 2026-04-23 18:20 | 47.55059 | 10.92424 | 38253 ft | 457 kts | 301° |
| 2026-04-23 18:21 | 47.57944 | 10.84013 | 38258 ft | 460 kts | 301° |
| 2026-04-23 18:21 | 47.60837 | 10.75556 | 38276 ft | 460 kts | 301° |
| 2026-04-23 18:22 | 47.63718 | 10.67105 | 38274 ft | 459 kts | 301° |
| 2026-04-23 18:22 | 47.66593 | 10.58641 | 38276 ft | 459 kts | 301° |
| 2026-04-23 18:23 | 47.70898 | 10.45925 | 38281 ft | 461 kts | 300° |
| 2026-04-23 18:24 | 47.75814 | 10.33859 | 38271 ft | 446 kts | 323° |
| 2026-04-23 18:25 | 47.82919 | 10.24871 | 38284 ft | 448 kts | 324° |
| 2026-04-23 18:25 | 47.87716 | 10.18980 | 38250 ft | 447 kts | 325° |
| 2026-04-23 18:26 | 47.92538 | 10.13074 | 38285 ft | 450 kts | 325° |
| 2026-04-23 18:26 | 47.97380 | 10.07133 | 38264 ft | 450 kts | 324° |
| 2026-04-23 18:27 | 48.02181 | 10.01227 | 38256 ft | 450 kts | 324° |
| 2026-04-23 18:27 | 48.07002 | 9.95282 | 38260 ft | 450 kts | 324° |
| 2026-04-23 18:28 | 48.11832 | 9.89311 | 38267 ft | 450 kts | 324° |
| 2026-04-23 18:28 | 48.16655 | 9.83332 | 38250 ft | 451 kts | 324° |
| 2026-04-23 18:29 | 48.21498 | 9.77315 | 38266 ft | 453 kts | 324° |
| 2026-04-23 18:29 | 48.26334 | 9.71292 | 38267 ft | 452 kts | 324° |
| 2026-04-23 18:30 | 48.31171 | 9.65253 | 38265 ft | 453 kts | 324° |
| 2026-04-23 18:30 | 48.35984 | 9.59152 | 38274 ft | 453 kts | 323° |
| 2026-04-23 18:31 | 48.40788 | 9.53010 | 38280 ft | 453 kts | 323° |
| 2026-04-23 18:31 | 48.45582 | 9.46868 | 38280 ft | 454 kts | 323° |
| 2026-04-23 18:32 | 48.50397 | 9.40684 | 38269 ft | 454 kts | 323° |
| 2026-04-23 18:32 | 48.55202 | 9.34497 | 38266 ft | 454 kts | 323° |
| 2026-04-23 18:33 | 48.60006 | 9.28298 | 38267 ft | 454 kts | 323° |
| 2026-04-23 18:33 | 48.62562 | 9.25601 | 38237 ft | 446 kts | 338° |
| 2026-04-23 18:33 | 48.65379 | 9.23684 | 38278 ft | 445 kts | 339° |
| 2026-04-23 18:34 | 48.71025 | 9.19758 | 38271 ft | 446 kts | 339° |
| 2026-04-23 18:34 | 48.76692 | 9.15905 | 38256 ft | 447 kts | 339° |
| 2026-04-23 18:35 | 48.82389 | 9.12045 | 38268 ft | 449 kts | 339° |
| 2026-04-23 18:35 | 48.88035 | 9.08211 | 38271 ft | 448 kts | 339° |
| 2026-04-23 18:36 | 48.93749 | 9.04321 | 38271 ft | 448 kts | 339° |
| 2026-04-23 18:36 | 48.99407 | 9.00459 | 38273 ft | 448 kts | 339° |
| 2026-04-23 18:37 | 49.05094 | 8.96567 | 38267 ft | 448 kts | 339° |
| 2026-04-23 18:37 | 49.10767 | 8.92676 | 38275 ft | 448 kts | 339° |
| 2026-04-23 18:38 | 49.16455 | 8.88765 | 38270 ft | 448 kts | 339° |
| 2026-04-23 18:38 | 49.22225 | 8.85310 | 38289 ft | 445 kts | 345° |
| 2026-04-23 18:39 | 49.28142 | 8.82391 | 38261 ft | 447 kts | 345° |
| 2026-04-23 18:39 | 49.34058 | 8.79500 | 38269 ft | 447 kts | 345° |
| 2026-04-23 18:40 | 49.39987 | 8.76599 | 38271 ft | 447 kts | 345° |
| 2026-04-23 18:40 | 49.45902 | 8.73698 | 38257 ft | 446 kts | 345° |
| 2026-04-23 18:41 | 49.51802 | 8.70796 | 38266 ft | 446 kts | 345° |
| 2026-04-23 18:41 | 49.57703 | 8.67886 | 38269 ft | 445 kts | 345° |
| 2026-04-23 18:42 | 49.63604 | 8.64970 | 38269 ft | 445 kts | 345° |
| 2026-04-23 18:42 | 49.69503 | 8.62026 | 38267 ft | 446 kts | 343° |
| 2026-04-23 18:42 | 49.72264 | 8.59825 | 38238 ft | 451 kts | 326° |
| 2026-04-23 18:43 | 49.74631 | 8.56623 | 38290 ft | 454 kts | 320° |
| 2026-04-23 18:43 | 49.79297 | 8.50008 | 38274 ft | 456 kts | 320° |
| 2026-04-23 18:44 | 49.83685 | 8.42908 | 38262 ft | 459 kts | 304° |
| 2026-04-23 18:44 | 49.85048 | 8.38436 | 38292 ft | 462 kts | 288° |
| 2026-04-23 18:44 | 49.85802 | 8.33595 | 38290 ft | 465 kts | 283° |
| 2026-04-23 18:45 | 49.87103 | 8.23820 | 38279 ft | 466 kts | 282° |
| 2026-04-23 18:45 | 49.88322 | 8.13973 | 38299 ft | 466 kts | 281° |
| 2026-04-23 18:46 | 49.89515 | 8.04106 | 38298 ft | 465 kts | 281° |
| 2026-04-23 18:46 | 49.90697 | 7.94245 | 38305 ft | 465 kts | 281° |
| 2026-04-23 18:47 | 49.91870 | 7.84385 | 38306 ft | 465 kts | 281° |
| 2026-04-23 18:47 | 49.93034 | 7.74523 | 38314 ft | 465 kts | 281° |
| 2026-04-23 18:48 | 49.94217 | 7.64667 | 38304 ft | 464 kts | 279° |
| 2026-04-23 18:48 | 49.95337 | 7.54805 | 38315 ft | 464 kts | 280° |
| 2026-04-23 18:49 | 49.96472 | 7.44948 | 38323 ft | 464 kts | 280° |
| 2026-04-23 18:49 | 49.97601 | 7.35086 | 38317 ft | 464 kts | 280° |
| 2026-04-23 18:50 | 49.98543 | 7.26820 | 38322 ft | 463 kts | 281° |
| 2026-04-23 18:50 | 49.99835 | 7.15372 | 38314 ft | 462 kts | 279° |
| 2026-04-23 18:51 | 50.00929 | 7.05544 | 38321 ft | 463 kts | 279° |
| 2026-04-23 18:51 | 50.02024 | 6.95692 | 38324 ft | 462 kts | 279° |
| 2026-04-23 18:51 | 50.02800 | 6.90848 | 38267 ft | 461 kts | 293° |
| 2026-04-23 18:52 | 50.04251 | 6.86415 | 38322 ft | 460 kts | 299° |
| 2026-04-23 18:52 | 50.07290 | 6.77627 | 38307 ft | 463 kts | 298° |
| 2026-04-23 18:53 | 50.10379 | 6.68853 | 38332 ft | 463 kts | 299° |
| 2026-04-23 18:53 | 50.13490 | 6.60041 | 38294 ft | 462 kts | 299° |
| 2026-04-23 18:54 | 50.16576 | 6.51283 | 38314 ft | 462 kts | 299° |
| 2026-04-23 18:54 | 50.19862 | 6.42756 | 38330 ft | 461 kts | 305° |
| 2026-04-23 18:55 | 50.23565 | 6.34480 | 38323 ft | 464 kts | 305° |
| 2026-04-23 18:55 | 50.27268 | 6.26236 | 38338 ft | 463 kts | 305° |
| 2026-04-23 18:56 | 50.30341 | 6.19379 | 38340 ft | 463 kts | 305° |
| 2026-04-23 18:56 | 50.34629 | 6.09781 | 38337 ft | 463 kts | 305° |
| 2026-04-23 18:57 | 50.38308 | 6.01518 | 38346 ft | 463 kts | 305° |
| 2026-04-23 18:57 | 50.41989 | 5.93226 | 38350 ft | 465 kts | 304° |
| 2026-04-23 18:58 | 50.45678 | 5.84888 | 38350 ft | 465 kts | 304° |
| 2026-04-23 18:58 | 50.49365 | 5.76529 | 38352 ft | 465 kts | 304° |
| 2026-04-23 18:59 | 50.53037 | 5.68175 | 38350 ft | 465 kts | 304° |
| 2026-04-23 18:59 | 50.56698 | 5.59824 | 38348 ft | 464 kts | 304° |
| 2026-04-23 19:00 | 50.60356 | 5.51448 | 38352 ft | 465 kts | 304° |
| 2026-04-23 19:00 | 50.64021 | 5.43033 | 38344 ft | 466 kts | 303° |
| 2026-04-23 19:01 | 50.67677 | 5.34610 | 38351 ft | 466 kts | 303° |
| 2026-04-23 19:01 | 50.71327 | 5.26173 | 38348 ft | 466 kts | 303° |
| 2026-04-23 19:02 | 50.74357 | 5.19149 | 38350 ft | 466 kts | 303° |
| 2026-04-23 19:02 | 50.78616 | 5.09267 | 38349 ft | 466 kts | 302° |
| 2026-04-23 19:03 | 50.82217 | 5.00779 | 38357 ft | 465 kts | 302° |
| 2026-04-23 19:03 | 50.85810 | 4.92258 | 38355 ft | 465 kts | 302° |
| 2026-04-23 19:04 | 50.89395 | 4.83735 | 38354 ft | 465 kts | 302° |
| 2026-04-23 19:04 | 50.92979 | 4.75189 | 38353 ft | 465 kts | 302° |
| 2026-04-23 19:05 | 50.96479 | 4.66581 | 38333 ft | 464 kts | 294° |
| 2026-04-23 19:05 | 50.99265 | 4.57354 | 38322 ft | 465 kts | 294° |
| 2026-04-23 19:06 | 51.02172 | 4.48187 | 38353 ft | 465 kts | 295° |
| 2026-04-23 19:06 | 51.04600 | 4.40568 | 38371 ft | 465 kts | 295° |
| 2026-04-23 19:07 | 51.07510 | 4.31411 | 38373 ft | 465 kts | 295° |
| 2026-04-23 19:07 | 51.10420 | 4.22221 | 38372 ft | 465 kts | 295° |
| 2026-04-23 19:08 | 51.13320 | 4.13030 | 38375 ft | 465 kts | 294° |
| 2026-04-23 19:08 | 51.16213 | 4.03825 | 38258 ft | 463 kts | 294° |
| 2026-04-23 19:08 | 51.17637 | 3.99281 | 37720 ft | 458 kts | 294° |
| 2026-04-23 19:09 | 51.19055 | 3.94749 | 37144 ft | 456 kts | 294° |
| 2026-04-23 19:09 | 51.20463 | 3.90240 | 36632 ft | 452 kts | 294° |
| 2026-04-23 19:09 | 51.21858 | 3.85768 | 36148 ft | 449 kts | 294° |
| 2026-04-23 19:09 | 51.23241 | 3.81319 | 35681 ft | 446 kts | 294° |
| 2026-04-23 19:10 | 51.24611 | 3.76905 | 35215 ft | 443 kts | 293° |
| 2026-04-23 19:10 | 51.25975 | 3.72509 | 34758 ft | 440 kts | 293° |
| 2026-04-23 19:10 | 51.27327 | 3.68142 | 34289 ft | 438 kts | 293° |
| 2026-04-23 19:10 | 51.28669 | 3.63797 | 33769 ft | 436 kts | 293° |
| 2026-04-23 19:11 | 51.30003 | 3.59471 | 33277 ft | 433 kts | 293° |
| 2026-04-23 19:11 | 51.31328 | 3.55166 | 32774 ft | 431 kts | 293° |
| 2026-04-23 19:11 | 51.32650 | 3.50865 | 32268 ft | 429 kts | 293° |
| 2026-04-23 19:11 | 51.33959 | 3.46598 | 31804 ft | 427 kts | 293° |
| 2026-04-23 19:12 | 51.35262 | 3.42342 | 31342 ft | 425 kts | 293° |
| 2026-04-23 19:12 | 51.36601 | 3.38132 | 30884 ft | 424 kts | 298° |
| 2026-04-23 19:12 | 51.38123 | 3.34130 | 30660 ft | 416 kts | 298° |
| 2026-04-23 19:12 | 51.39581 | 3.30211 | 30549 ft | 405 kts | 297° |
| 2026-04-23 19:13 | 51.40986 | 3.26381 | 30448 ft | 393 kts | 296° |
| 2026-04-23 19:13 | 51.42351 | 3.22635 | 30342 ft | 389 kts | 296° |
| 2026-04-23 19:13 | 51.43728 | 3.18842 | 30256 ft | 399 kts | 296° |
| 2026-04-23 19:14 | 51.46560 | 3.11020 | 30073 ft | 409 kts | 296° |
| 2026-04-23 19:14 | 51.49409 | 3.03128 | 29913 ft | 408 kts | 296° |
| 2026-04-23 19:15 | 51.52243 | 2.95250 | 29661 ft | 407 kts | 297° |
| 2026-04-23 19:15 | 51.53654 | 2.91320 | 29246 ft | 405 kts | 297° |
| 2026-04-23 19:15 | 51.55053 | 2.87416 | 28786 ft | 403 kts | 296° |
| 2026-04-23 19:15 | 51.56447 | 2.83520 | 28367 ft | 400 kts | 296° |
| 2026-04-23 19:16 | 51.57827 | 2.79660 | 27952 ft | 397 kts | 297° |
| 2026-04-23 19:16 | 51.59199 | 2.75813 | 27550 ft | 395 kts | 297° |
| 2026-04-23 19:16 | 51.60558 | 2.71997 | 27148 ft | 392 kts | 297° |
| 2026-04-23 19:17 | 51.63252 | 2.64419 | 26361 ft | 388 kts | 297° |
| 2026-04-23 19:17 | 51.64583 | 2.60664 | 25973 ft | 386 kts | 297° |
| 2026-04-23 19:17 | 51.65908 | 2.56923 | 25583 ft | 384 kts | 297° |
| 2026-04-23 19:17 | 51.67227 | 2.53191 | 25196 ft | 382 kts | 297° |
| 2026-04-23 19:18 | 51.68538 | 2.49478 | 24812 ft | 381 kts | 298° |
| 2026-04-23 19:18 | 51.69844 | 2.45771 | 24429 ft | 379 kts | 298° |
| 2026-04-23 19:18 | 51.71144 | 2.42078 | 24047 ft | 378 kts | 298° |
| 2026-04-23 19:18 | 51.72438 | 2.38396 | 23616 ft | 377 kts | 297° |
| 2026-04-23 19:19 | 51.75004 | 2.31075 | 22819 ft | 372 kts | 298° |
| 2026-04-23 19:19 | 51.76271 | 2.27460 | 22450 ft | 368 kts | 298° |
| 2026-04-23 19:20 | 51.78751 | 2.20361 | 21711 ft | 363 kts | 298° |
| 2026-04-23 19:20 | 51.79983 | 2.16825 | 21360 ft | 359 kts | 298° |
| 2026-04-23 19:20 | 51.81206 | 2.13322 | 20973 ft | 357 kts | 298° |
| 2026-04-23 19:20 | 51.82422 | 2.09837 | 20606 ft | 355 kts | 297° |
| 2026-04-23 19:21 | 51.83631 | 2.06378 | 20242 ft | 352 kts | 297° |
| 2026-04-23 19:21 | 51.85996 | 1.99503 | 19540 ft | 348 kts | 297° |
| 2026-04-23 19:21 | 51.87172 | 1.96097 | 19191 ft | 346 kts | 297° |
| 2026-04-23 19:22 | 51.88340 | 1.92711 | 18843 ft | 344 kts | 298° |
| 2026-04-23 19:22 | 51.89499 | 1.89341 | 18457 ft | 342 kts | 297° |
| 2026-04-23 19:22 | 51.91746 | 1.82551 | 17587 ft | 340 kts | 297° |
| 2026-04-23 19:23 | 51.92854 | 1.79181 | 17224 ft | 338 kts | 298° |
| 2026-04-23 19:23 | 51.93968 | 1.75843 | 16847 ft | 336 kts | 299° |
| 2026-04-23 19:23 | 51.95073 | 1.72505 | 16461 ft | 335 kts | 298° |
| 2026-04-23 19:24 | 51.97256 | 1.65856 | 15701 ft | 333 kts | 300° |
| 2026-04-23 19:24 | 51.98345 | 1.62544 | 15314 ft | 333 kts | 300° |
| 2026-04-23 19:24 | 52.00515 | 1.55927 | 14553 ft | 332 kts | 301° |
| 2026-04-23 19:25 | 52.01997 | 1.48881 | 13732 ft | 335 kts | 274° |
| 2026-04-23 19:25 | 52.02054 | 1.41394 | 13073 ft | 329 kts | 271° |
| 2026-04-23 19:26 | 52.02090 | 1.34005 | 12339 ft | 326 kts | 271° |
| 2026-04-23 19:26 | 52.02104 | 1.30347 | 12010 ft | 323 kts | 271° |
| 2026-04-23 19:27 | 52.02128 | 1.23081 | 11306 ft | 320 kts | 271° |
| 2026-04-23 19:27 | 52.02156 | 1.12433 | 10588 ft | 304 kts | 271° |
| 2026-04-23 19:28 | 52.02162 | 1.05609 | 9962 ft | 300 kts | 271° |
| 2026-04-23 19:28 | 52.02158 | 0.98835 | 9438 ft | 298 kts | 271° |
| 2026-04-23 19:29 | 52.02166 | 0.95469 | 9428 ft | 299 kts | 271° |
| 2026-04-23 19:29 | 52.02200 | 0.88725 | 9426 ft | 299 kts | 271° |
| 2026-04-23 19:30 | 52.02226 | 0.81976 | 9433 ft | 299 kts | 271° |
| 2026-04-23 19:30 | 52.02238 | 0.78607 | 9433 ft | 299 kts | 271° |
| 2026-04-23 19:30 | 52.02262 | 0.71874 | 9426 ft | 299 kts | 271° |
| 2026-04-23 19:31 | 52.02273 | 0.68499 | 9417 ft | 299 kts | 271° |
| 2026-04-23 19:31 | 52.02286 | 0.65127 | 9414 ft | 299 kts | 271° |
| 2026-04-23 19:31 | 52.02297 | 0.61756 | 9414 ft | 298 kts | 271° |
| 2026-04-23 19:31 | 52.02308 | 0.58390 | 9406 ft | 298 kts | 271° |
| 2026-04-23 19:32 | 52.02318 | 0.55021 | 9409 ft | 299 kts | 271° |
| 2026-04-23 19:32 | 52.02327 | 0.51647 | 9406 ft | 299 kts | 271° |
| 2026-04-23 19:32 | 52.02335 | 0.48273 | 9409 ft | 299 kts | 271° |
| 2026-04-23 19:32 | 52.02349 | 0.44902 | 9406 ft | 299 kts | 271° |
| 2026-04-23 19:33 | 52.02371 | 0.41520 | 9404 ft | 299 kts | 271° |
| 2026-04-23 19:33 | 52.02385 | 0.38143 | 9404 ft | 300 kts | 271° |
| 2026-04-23 19:33 | 52.01677 | 0.31616 | 9218 ft | 296 kts | 238° |
| 2026-04-23 19:34 | 52.00403 | 0.29004 | 8839 ft | 295 kts | 226° |
| 2026-04-23 19:34 | 51.99018 | 0.26556 | 8507 ft | 294 kts | 226° |
| 2026-04-23 19:34 | 51.96263 | 0.21709 | 7874 ft | 290 kts | 226° |
| 2026-04-23 19:35 | 51.94913 | 0.19335 | 7501 ft | 283 kts | 226° |
| 2026-04-23 19:35 | 51.93600 | 0.17021 | 7125 ft | 275 kts | 226° |
| 2026-04-23 19:35 | 51.92332 | 0.14778 | 6822 ft | 265 kts | 226° |
| 2026-04-23 19:35 | 51.91100 | 0.12596 | 6375 ft | 261 kts | 226° |
| 2026-04-23 19:36 | 51.89881 | 0.10430 | 5916 ft | 259 kts | 226° |
| 2026-04-23 19:36 | 51.88671 | 0.08279 | 5443 ft | 258 kts | 226° |
| 2026-04-23 19:36 | 51.87470 | 0.06144 | 4977 ft | 256 kts | 226° |
| 2026-04-23 19:36 | 51.86273 | 0.04014 | 4493 ft | 255 kts | 226° |
| 2026-04-23 19:37 | 51.85091 | 0.01897 | 4038 ft | 253 kts | 226° |
| 2026-04-23 19:37 | 51.83865 | -0.00131 | 3586 ft | 250 kts | 213° |
| 2026-04-23 19:37 | 51.82314 | -0.01164 | 3173 ft | 238 kts | 186° |
| 2026-04-23 19:37 | 51.80720 | -0.01491 | 2951 ft | 225 kts | 181° |
| 2026-04-23 19:38 | 51.79195 | -0.01757 | 2835 ft | 218 kts | 181° |
| 2026-04-23 19:38 | 51.77711 | -0.02024 | 2688 ft | 211 kts | 181° |
| 2026-04-23 19:38 | 51.76313 | -0.01961 | 2496 ft | 193 kts | 155° |
| 2026-04-23 19:38 | 51.75302 | -0.00765 | 2249 ft | 175 kts | 118° |
| 2026-04-23 19:39 | 51.75023 | 0.01002 | 2031 ft | 158 kts | 80° |
| 2026-04-23 19:39 | 51.75428 | 0.02649 | 2037 ft | 161 kts | 63° |
| 2026-04-23 19:39 | 51.76025 | 0.04219 | 2039 ft | 166 kts | 57° |
| 2026-04-23 19:39 | 51.76747 | 0.05688 | 1983 ft | 167 kts | 51° |
| 2026-04-23 19:40 | 51.77552 | 0.07054 | 1986 ft | 169 kts | 47° |
| 2026-04-23 19:40 | 51.78399 | 0.08365 | 2025 ft | 169 kts | 46° |
| 2026-04-23 19:40 | 51.79262 | 0.09657 | 2036 ft | 169 kts | 46° |
| 2026-04-23 19:40 | 51.80123 | 0.10944 | 2011 ft | 169 kts | 46° |
| 2026-04-23 19:41 | 51.80987 | 0.12234 | 1965 ft | 170 kts | 46° |
| 2026-04-23 19:41 | 51.81856 | 0.13543 | 1873 ft | 169 kts | 46° |
| 2026-04-23 19:41 | 51.82657 | 0.14733 | 1705 ft | 145 kts | 46° |
| 2026-04-23 19:41 | 51.83377 | 0.15808 | 1526 ft | 138 kts | 46° |
| 2026-04-23 19:42 | 51.84072 | 0.16861 | 1364 ft | 136 kts | 46° |
| 2026-04-23 19:42 | 51.84765 | 0.17894 | 1167 ft | 136 kts | 45° |
| 2026-04-23 19:42 | 51.85460 | 0.18939 | 1000 ft | 137 kts | 46° |
| 2026-04-23 19:42 | 51.86160 | 0.19971 | 816 ft | 134 kts | 44° |
| 2026-04-23 19:43 | 51.86851 | 0.20982 | 627 ft | 136 kts | 46° |
| 2026-04-23 19:43 | 51.87551 | 0.22054 | 424 ft | 140 kts | 43° |
| 2026-04-23 19:43 | 51.88237 | 0.23085 | 337 ft | 122 kts | 42° |
| 2026-04-23 19:43 | 51.88780 | 0.23898 | 350 ft | 92 kts | 43° |
| 2026-04-23 19:44 | 51.89154 | 0.24461 | 353 ft | 44 kts | 43° |
| 2026-04-23 19:44 | 51.89247 | 0.24633 | 354 ft | 14 kts | 78° |
| 2026-04-23 19:44 | 51.89215 | 0.24789 | 356 ft | 15 kts | 130° |
| 2026-04-23 19:44 | 51.89168 | 0.24871 | 355 ft | 7 kts | 133° |
| 2026-04-23 19:45 | 51.89154 | 0.24933 | 356 ft | 6 kts | 76° |
| 2026-04-23 19:45 | 51.89187 | 0.24995 | 356 ft | 9 kts | 45° |
| 2026-04-23 19:45 | 51.89228 | 0.25081 | 358 ft | 9 kts | 59° |
| 2026-04-23 19:45 | 51.89233 | 0.25175 | 363 ft | 9 kts | 116° |
| 2026-04-23 19:46 | 51.89195 | 0.25264 | 360 ft | 8 kts | 118° |
| 2026-04-23 19:46 | 51.89170 | 0.25337 | 360 ft | 6 kts | 121° |
| 2026-04-23 19:46 | 51.89137 | 0.25399 | 360 ft | 6 kts | 133° |
| 2026-04-23 19:46 | 51.89113 | 0.25441 | 355 ft | 4 kts | 131° |
| 2026-04-23 19:47 | 51.89110 | 0.25472 | 355 ft | 5 kts | 77° |
| 2026-04-23 19:47 | 51.89126 | 0.25517 | 363 ft | 1 kts | 56° |
| 2026-04-23 19:47 | 51.89127 | 0.25521 | 362 ft | 0 kts | 55° |